Weather at Stockholm-Arlanda Airport

Public forecast

Using degrees Celsius for public forecast. Weather courtesy of forecast.io.

Current aviation weather report (METAR) for Stockholm-Arlanda Airport

2024/02/24 01:50 (retrieved 12 minutes ago)

ESSA 240150Z 17010KT CAVOK 02/M01 Q0999 NOSIG

Closest aviation forecast (TAF) to Stockholm-Arlanda Airport

Closest forecast is Leeuwarden Air Base, 556.6 nm (1,030.8 km) SW.

2024/02/23 22:03 (retrieved 4 hours ago)

TAF TAF EHLW 232123Z 2322/2410 17007KT 9999 FEW018 SCT030 TEMPO 2322/2402 4000 SHRA SHRAGS SCT015 SCT020CB TEMPO 2404/2410 SCT008 BKN012